Parkdale, Colorado
Current Conditions -  °F | °C
As of 1:35 AM on Wednesday 26 Nov 2014 (Local Time) from K1V6 Reporting Station
Clear Clear  
Wind Chill: 24°   Ceiling: Unl
Heat Index: 34°   Visibility: 10mi
Dew Point: 28°   Wind: 14mph
Humidity: 81%   Direction: 140°SE
Pressure: 30.12"   Gusts: NA
Location:  38.533°N, 105.389°W
Report Text: K1V6 260835Z AUTO 14012KT 10SM CLR 01/M02 A3012 RMK AO2
Loading
Personal Weather Stations






























Interactive Weather Map New forecast layout! Learn more

10-Day Weather Forecast

Advertisements
Track Severe Weather on mobile